Latest Weather Observations for Geelong Racecourse

IDV60801

Issued at 12:31 pm EST Wednesday 5 August 2015 (issued every 30 minutes, with the page automatically refreshed every 10 minutes)

About weather observations | Map of weather stations | Latest weather observations for VIC | Other Formats
Station Details ID: 087184 Name: GEELONG RACECOURSE Lat: -38.17 Lon: 144.38 Height: 12.9 m
Data from the previous 72 hours. | See also: Recent months at Geelong Racecourse
Date/Time
EST
Temp
°C
App
Temp
°C
Dew
Point
Rel
Hum
%
Delta-T
°C
Wind Press
QNH
hPa
Press
MSL
hPa
Rain
since 9 am
mm
Dir
 
Spd
km/h
Gust
km/h
Spd
kts
Gust
kts
05/12:30pm 9.5 4.5 4.5 71 2.2 W 20 32 11 17 1013.2 1013.2 0.0
05/12:00pm 9.4 5.3 6.1 80 1.5 WSW 17 26 9 14 1013.5 1013.5 0.0
05/11:30am 10.8 6.6 5.6 70 2.4 WSW 17 24 9 13 1013.6 1013.6 0.0
05/11:00am 10.1 4.0 4.9 70 2.3 WSW 26 39 14 21 1013.5 1013.5 0.0
05/10:30am 10.1 5.3 5.5 73 2.1 W 20 30 11 16 1013.4 1013.4 0.0
05/10:00am 9.4 5.1 5.4 76 1.8 W 17 28 9 15 1013.2 1013.2 0.0
05/09:30am 9.1 4.6 6.2 82 1.3 W 19 26 10 14 1013.2 1013.2 0.0
05/09:00am 8.6 4.7 7.1 90 0.7 W 17 24 9 13 1012.9 1012.9 0.4
05/08:30am 8.1 4.8 6.6 90 0.7 W 13 20 7 11 1012.7 1012.7 0.4
05/08:00am 7.4 4.1 6.2 92 0.5 W 13 19 7 10 1012.2 1012.2 0.4
05/07:30am 7.4 4.5 6.3 93 0.5 WNW 11 19 6 10 1011.8 1011.8 0.4
05/07:00am 7.3 4.3 6.2 93 0.5 WNW 11 19 6 10 1011.5 1011.5 0.4
05/06:30am 7.3 4.3 6.2 93 0.5 WNW 11 19 6 10 1011.4 1011.4 0.4
05/06:00am 7.3 4.7 6.2 93 0.5 WNW 9 15 5 8 1011.1 1011.1 0.4
05/05:30am 7.9 3.9 6.5 91 0.6 W 17 24 9 13 1010.8 1010.8 0.4
05/05:00am 8.0 4.4 6.9 93 0.5 WNW 15 22 8 12 1010.5 1010.5 0.4
05/04:30am 8.3 3.9 7.2 93 0.5 WNW 20 30 11 16 1010.7 1010.7 0.2
05/04:00am 8.6 3.8 7.5 93 0.5 WNW 22 33 12 18 1010.3 1010.3 0.0
05/03:30am 8.8 4.1 7.7 93 0.5 WNW 22 39 12 21 1010.3 1010.3 0.0
05/03:00am 9.1 4.4 7.9 92 0.6 NW 22 37 12 20 1010.4 1010.4 0.0
05/02:30am 9.1 4.7 7.2 88 0.9 WNW 20 33 11 18 1010.9 1010.9 0.0
05/02:00am 9.4 4.9 7.0 85 1.1 WNW 20 35 11 19 1011.2 1011.2 0.0
05/01:30am 9.5 5.0 6.9 84 1.2 WNW 20 32 11 17 1011.3 1011.3 0.0
05/01:00am 9.5 4.6 6.8 83 1.3 WNW 22 35 12 19 1011.7 1011.7 0.0
05/12:30am 9.3 4.8 7.1 86 1.0 NW 20 32 11 17 1012.1 1012.1 0.0
05/12:00am 9.1 4.7 7.5 90 0.8 WNW 20 35 11 19 1012.5 1012.5 0.0
 
Date/Time
EST
Temp
°C
App
Temp
°C
Dew
Point
Rel
Hum
%
Delta-T
°C
Wind Press
QNH
hPa
Press
MSL
hPa
Rain
since 9 am
mm
Dir
 
Spd
km/h
Gust
km/h
Spd
kts
Gust
kts
04/11:30pm 9.0 4.3 7.6 91 0.7 WNW 22 33 12 18 1012.9 1012.9 0.0
04/11:00pm 9.7 3.4 5.7 76 1.8 NW 28 46 15 25 1012.9 1012.9 0.0
04/10:30pm 9.6 3.0 6.0 78 1.7 NW 30 50 16 27 1012.9 1012.9 0.0
04/10:28pm 9.7 3.5 6.1 78 1.7 NW 28 48 15 26 1013.1 1013.1 0.0
04/10:00pm 9.4 2.4 6.1 80 1.5 NW 32 44 17 24 1013.2 1013.2 0.0
04/09:30pm 9.3 3.5 6.4 82 1.3 NW 26 44 14 24 1013.9 1013.9 0.0
04/09:00pm 9.2 3.5 6.6 84 1.2 NW 26 39 14 21 1014.3 1014.3 0.0
04/08:30pm 9.3 4.2 6.2 81 1.4 NW 22 33 12 18 1014.7 1014.7 0.0
04/08:00pm 9.3 4.8 6.2 81 1.4 NW 19 30 10 16 1015.3 1015.3 0.0
04/07:30pm 9.9 4.2 5.1 72 2.2 NW 24 37 13 20 1015.6 1015.6 0.0
04/07:00pm 10.1 5.3 4.7 69 2.4 NW 19 28 10 15 1015.8 1015.8 0.0
04/06:30pm 10.1 6.0 4.5 68 2.5 NW 15 26 8 14 1016.1 1016.1 0.0
04/06:00pm 9.8 5.4 4.6 70 2.3 NW 17 26 9 14 1016.1 1016.1 0.0
04/05:30pm 10.2 5.8 4.8 69 2.4 NNW 17 24 9 13 1016.3 1016.3 0.0
04/05:00pm 10.6 5.6 4.7 67 2.7 NW 20 30 11 16 1016.4 1016.4 0.0
04/04:30pm 10.6 5.6 4.7 67 2.7 NW 20 33 11 18 1016.8 1016.8 0.0
04/04:00pm 11.3 5.9 4.5 63 3.1 NW 22 35 12 19 1017.2 1017.2 0.0
04/03:30pm 11.1 5.3 4.6 64 2.9 NW 24 41 13 22 1017.7 1017.7 0.0
04/03:00pm 10.8 5.0 4.3 64 2.9 NW 24 39 13 21 1018.0 1018.0 0.0
04/02:30pm 11.1 5.6 4.1 62 3.1 WNW 22 37 12 20 1018.2 1018.2 0.0
04/02:00pm 10.9 5.1 4.4 64 2.9 NW 24 39 13 21 1018.9 1018.9 0.0
04/01:30pm 10.3 5.4 4.2 66 2.7 WNW 19 33 10 18 1019.4 1019.4 0.0
04/01:00pm 10.2 4.6 3.7 64 2.8 WNW 22 39 12 21 1019.9 1019.9 0.0
04/12:30pm 10.9 4.6 3.9 62 3.1 WNW 26 37 14 20 1020.2 1020.2 0.0
04/12:00pm 9.8 3.9 3.8 66 2.6 WNW 24 33 13 18 1021.1 1021.1 0.0
04/11:30am 9.8 3.5 3.5 65 2.7 WNW 26 41 14 22 1021.5 1021.5 0.0
04/11:00am 9.7 4.2 3.9 67 2.5 WNW 22 37 12 20 1021.9 1021.9 0.0
04/10:30am 9.1 3.5 3.5 68 2.4 NW 22 33 12 18 1022.3 1022.3 0.0
04/10:00am 8.4 3.2 3.3 70 2.2 WNW 20 30 11 16 1022.5 1022.5 0.0
04/09:30am 7.7 2.7 3.4 74 1.8 NW 19 28 10 15 1022.7 1022.7 0.0
04/09:00am 6.5 2.6 3.5 81 1.3 NW 13 20 7 11 1022.9 1022.9 0.0
04/08:30am 5.4 1.9 3.7 89 0.7 NW 11 15 6 8 1023.1 1023.1 0.0
04/08:00am 4.0 1.2 3.0 93 0.4 NW 7 11 4 6 1023.2 1023.2 0.0
04/07:30am 3.4 0.5 2.4 93 0.4 NW 7 11 4 6 1023.2 1023.2 0.0
04/07:00am 4.0 0.8 3.0 93 0.4 NW 9 15 5 8 1023.2 1023.2 0.0
04/06:30am 4.5 0.9 3.2 91 0.5 NW 11 17 6 9 1023.2 1023.2 0.0
04/06:00am 4.9 0.6 3.1 88 0.7 WNW 15 20 8 11 1023.1 1023.1 0.0
04/05:30am 5.1 0.4 3.3 88 0.7 WNW 17 24 9 13 1022.8 1022.8 0.0
04/05:00am 4.8 0.1 3.3 90 0.6 WNW 17 26 9 14 1022.6 1022.6 0.0
04/04:30am 4.4 0.8 3.2 92 0.5 WNW 11 19 6 10 1022.7 1022.7 0.0
04/04:00am 4.0 -0.4 2.8 92 0.5 NW 15 19 8 10 1022.7 1022.7 0.0
04/03:30am 4.1 0.1 2.9 92 0.5 WNW 13 22 7 12 1022.8 1022.8 0.0
04/03:00am 4.2 0.6 3.0 92 0.5 NW 11 17 6 9 1023.0 1023.0 0.0
04/02:30am 4.0 -0.4 2.8 92 0.5 NW 15 22 8 12 1023.1 1023.1 0.0
04/02:00am 4.4 0.0 2.9 90 0.6 WNW 15 20 8 11 1023.2 1023.2 0.0
04/01:30am 4.2 -0.2 2.9 91 0.5 NW 15 24 8 13 1023.2 1023.2 0.0
04/01:00am 4.0 0.0 2.7 91 0.5 NW 13 17 7 9 1023.4 1023.4 0.0
04/12:30am 4.3 -0.1 2.8 90 0.6 NW 15 20 8 11 1023.5 1023.5 0.0
04/12:00am 4.7 0.7 3.0 89 0.7 WNW 13 20 7 11 1023.6 1023.6 0.0
 
Date/Time
EST
Temp
°C
App
Temp
°C
Dew
Point
Rel
Hum
%
Delta-T
°C
Wind Press
QNH
hPa
Press
MSL
hPa
Rain
since 9 am
mm
Dir
 
Spd
km/h
Gust
km/h
Spd
kts
Gust
kts
03/11:30pm 4.8 1.2 3.1 89 0.7 NW 11 19 6 10 1023.5 1023.5 0.0
03/11:00pm 4.6 1.0 2.8 88 0.7 WNW 11 17 6 9 1023.5 1023.5 0.0
03/10:30pm 5.1 1.1 2.6 84 1.0 NW 13 19 7 10 1023.7 1023.7 0.0
03/10:00pm 5.8 2.8 2.3 78 1.4 W 7 11 4 6 1023.8 1023.8 0.0
03/09:30pm 5.7 2.0 2.4 79 1.3 W 11 19 6 10 1023.8 1023.8 0.0
03/09:00pm 6.0 2.3 2.3 77 1.5 W 11 19 6 10 1023.8 1023.8 0.0
03/08:30pm 5.7 2.0 2.2 78 1.4 W 11 17 6 9 1023.6 1023.6 0.0
03/08:00pm 5.2 2.2 1.9 79 1.3 W 7 15 4 8 1023.5 1023.5 0.0
03/07:30pm 5.7 2.3 1.8 76 1.6 WNW 9 15 5 8 1023.3 1023.3 0.0
03/07:00pm 5.6 1.7 1.3 74 1.7 W 11 15 6 8 1023.1 1023.1 0.0
03/06:30pm 5.7 1.8 1.1 72 1.8 W 11 15 6 8 1022.6 1022.6 0.0
03/06:00pm 6.0 2.1 1.2 71 1.9 W 11 17 6 9 1022.3 1022.3 0.0
03/05:30pm 6.7 2.3 0.6 65 2.4 WSW 13 20 7 11 1022.1 1022.1 0.0
03/05:00pm 7.7 2.8 2.0 67 2.3 WSW 17 28 9 15 1021.7 1021.7 0.0
03/04:30pm 7.6 3.6 2.7 71 2.0 WSW 13 24 7 13 1021.4 1021.4 0.0
03/04:00pm 7.2 2.8 2.5 72 1.9 W 15 26 8 14 1021.2 1021.2 0.0
03/03:30pm 7.6 2.4 2.5 70 2.1 SSW 19 37 10 20 1021.1 1021.1 0.0
03/03:00pm 9.2 3.9 1.6 59 3.1 W 19 28 10 15 1020.3 1020.3 0.0
03/02:30pm 9.5 4.0 1.9 59 3.2 WSW 20 30 11 16 1020.1 1020.1 0.0
03/02:00pm 9.7 4.3 2.6 61 3.0 WSW 20 28 11 15 1019.9 1019.9 0.0
03/01:30pm 7.9 2.4 1.7 65 2.5 W 20 30 11 16 1019.9 1019.9 0.0
03/01:00pm 9.1 3.5 1.0 57 3.3 SW 20 30 11 16 1019.6 1019.6 0.0
03/12:30pm 8.9 4.3 1.8 61 2.9 WSW 15 24 8 13 1019.4 1019.4 0.0
03/12:00pm 7.4 0.1 2.7 72 2.0 SW 30 43 16 23 1019.7 1019.7 0.0
03/11:30am 9.1 4.6 2.0 61 3.0 WSW 15 30 8 16 1019.1 1019.1 0.0
03/11:00am 7.8 3.4 2.9 71 2.1 WSW 15 28 8 15 1019.1 1019.1 0.0
03/10:30am 8.8 3.2 1.2 59 3.1 WSW 20 30 11 16 1018.6 1018.6 0.0
03/10:00am 8.5 3.2 2.1 64 2.7 WSW 19 30 10 16 1018.0 1018.0 0.0
03/09:30am 7.9 2.4 2.0 66 2.4 WSW 20 30 11 16 1017.6 1017.6 0.0
03/09:00am 7.6 3.3 3.1 73 1.9 W 15 22 8 12 1017.1 1017.1 0.0
03/08:30am 6.9 2.6 3.0 76 1.6 W 15 22 8 12 1016.4 1016.4 0.0
03/08:00am 6.9 2.2 3.0 76 1.6 W 17 24 9 13 1015.3 1015.3 0.0
03/07:30am 7.0 3.0 4.7 85 1.0 W 15 24 8 13 1015.0 1015.0 0.0
03/07:00am 7.1 1.7 4.6 84 1.1 W 22 30 12 16 1014.1 1014.1 0.0
03/06:30am 7.0 2.3 5.3 89 0.8 W 19 28 10 15 1013.4 1013.4 0.0
03/06:00am 7.1 2.0 5.9 92 0.5 W 22 33 12 18 1012.9 1012.9 0.0
03/05:30am 7.1 1.6 5.9 92 0.5 W 24 37 13 20 1012.6 1012.6 0.0
03/05:00am 7.4 2.0 6.2 92 0.5 W 24 37 13 20 1012.1 1012.1 0.0
03/04:30am 8.0 2.9 6.1 88 0.9 W 22 35 12 19 1011.2 1011.2 0.0
03/04:00am 8.0 2.1 5.6 85 1.1 W 26 43 14 23 1011.0 1011.0 0.0
03/03:30am 8.1 2.7 6.4 89 0.8 W 24 37 13 20 1010.8 1010.8 0.0
03/03:00am 8.3 1.4 7.1 92 0.6 W 33 50 18 27 1010.8 1010.8 0.0
03/02:47am 8.8 2.2 6.1 83 1.2 WNW 30 54 16 29 1010.8 1010.8 0.0
03/02:30am 8.9 4.1 5.8 81 1.4 WNW 20 39 11 21 1010.9 1010.9 0.0
03/02:10am 9.2 2.9 5.6 78 1.6 WNW 28 46 15 25 1010.8 1010.8 0.0
03/02:00am 9.2 3.3 5.6 78 1.6 WNW 26 43 14 23 1010.8 1010.8 0.0
03/01:30am 9.1 2.7 5.1 76 1.8 WNW 28 44 15 24 1010.6 1010.6 0.0
03/01:00am 9.1 3.1 5.1 76 1.8 WNW 26 39 14 21 1010.4 1010.4 0.0
03/12:30am 9.2 3.1 5.0 75 1.9 WNW 26 41 14 22 1010.6 1010.6 0.0
03/12:00am 8.9 3.2 5.1 77 1.7 WNW 24 48 13 26 1010.6 1010.6 0.0
 
Date/Time
EST
Temp
°C
App
Temp
°C
Dew
Point
Rel
Hum
%
Delta-T
°C
Wind Press
QNH
hPa
Press
MSL
hPa
Rain
since 9 am
mm
Dir
 
Spd
km/h
Gust
km/h
Spd
kts
Gust
kts
02/11:53pm 9.2 2.8 5.0 75 1.9 WNW 28 48 15 26 1010.6 1010.6 0.0
02/11:30pm 8.9 4.2 5.1 77 1.7 WNW 19 32 10 17 1010.7 1010.7 0.0
02/11:00pm 8.6 3.8 5.4 80 1.4 NW 20 43 11 23 1010.8 1010.8 0.0
02/10:30pm 8.5 3.7 5.4 81 1.4 NW 20 33 11 18 1011.2 1011.2 0.0
02/10:00pm 8.7 4.2 6.3 85 1.1 NW 19 30 10 16 1011.3 1011.3 0.0
02/09:30pm 8.6 4.2 6.4 86 1.0 NW 19 32 10 17 1011.3 1011.3 0.0
02/09:00pm 9.1 3.7 6.2 82 1.3 WNW 24 35 13 19 1011.3 1011.3 0.0
02/08:30pm 9.3 4.9 6.4 82 1.3 NW 19 35 10 19 1011.2 1011.2 0.0
02/08:00pm 9.1 5.6 7.1 87 0.9 NNW 15 24 8 13 1011.1 1011.1 0.0
02/07:30pm 9.1 5.4 6.5 84 1.2 WNW 15 24 8 13 1011.0 1011.0 0.0
02/07:00pm 9.6 6.3 8.2 91 0.7 NW 15 24 8 13 1011.0 1011.0 0.0
02/06:30pm 9.5 7.0 8.3 92 0.6 NW 11 17 6 9 1010.7 1010.7 0.0
02/06:00pm 9.6 6.8 8.4 92 0.6 NW 13 19 7 10 1010.3 1010.3 0.0
02/05:30pm 9.7 6.9 8.5 92 0.6 WNW 13 22 7 12 1010.0 1010.0 0.0
02/05:00pm 9.9 5.5 7.5 85 1.1 WNW 20 37 11 20 1010.0 1010.0 0.0
02/04:30pm 10.1 5.7 8.9 92 0.6 W 22 33 12 18 1009.9 1009.9 0.0
02/04:00pm 9.9 4.7 8.7 92 0.6 W 26 44 14 24 1009.7 1009.7 0.0
02/03:30pm 11.3 7.1 7.6 78 1.8 WNW 19 35 10 19 1009.2 1009.2 0.0
02/03:00pm 13.1 6.7 5.3 59 3.6 WNW 28 43 15 23 1008.4 1008.4 0.0
02/02:34pm 13.4 5.1 4.3 54 4.2 WNW 37 72 20 39 1008.2 1008.2 0.0
02/02:30pm 14.1 7.3 5.2 55 4.2 WNW 30 50 16 27 1008.3 1008.3 0.0
02/02:00pm 13.5 6.0 4.6 55 4.1 WNW 33 52 18 28 1008.7 1008.7 0.0
02/01:30pm 13.2 6.4 5.1 58 3.8 WNW 30 50 16 27 1008.9 1008.9 0.0
02/01:19pm 12.8 6.3 4.5 57 3.8 WNW 28 54 15 29 1008.8 1008.8 0.0
02/01:00pm 13.0 6.1 4.7 57 3.8 WNW 30 46 16 25 1009.2 1009.2 0.0

Other Formats:

Comma delimited format used in spreadsheet applications
http://www.bom.gov.au/fwo/IDV60801/IDV60801.94857.axf

JavaScript Object Notation format (JSON) in row-major order
http://www.bom.gov.au/fwo/IDV60801/IDV60801.94857.json